Time;durP1;ratioP1;P1;durP2;ratioP2;P2;SDS_P1;SDS_P2;PMS_P1;PMS_P2;Temp;Humidity;BMP_temperature;BMP_pressure;BME280_temperature;BME280_humidity;BME280_pressure;Samples;Min_cycle;Max_cycle;Signal;HPM_P1;HPM_P2
2023/05/18 00:01:21;;;;;;;2.10;1.43;;;11.00;97.40;;;11.26;60.34;101418.69;5035673;28;20630;-67
2023/05/18 00:03:48;;;;;;;1.80;1.70;;;11.00;97.70;;;11.20;60.76;101411.22;5029372;28;20621;-67
2023/05/18 00:06:16;;;;;;;1.53;1.43;;;11.00;98.10;;;11.17;60.18;101414.88;5036705;28;20682;-66
2023/05/18 00:08:43;;;;;;;2.63;1.47;;;11.00;98.50;;;11.16;60.84;101418.41;5031365;28;20742;-68
2023/05/18 00:11:10;;;;;;;1.93;1.80;;;10.90;98.80;;;11.13;60.51;101413.38;5037103;28;20721;-67
2023/05/18 00:13:37;;;;;;;1.83;1.67;;;10.90;99.10;;;11.06;60.50;101406.00;5024233;28;20646;-67
2023/05/18 00:16:04;;;;;;;1.37;1.27;;;10.90;99.40;;;11.06;61.20;101413.84;5037943;28;21179;-67
2023/05/18 00:18:33;;;;;;;2.20;1.13;;;10.80;99.70;;;11.03;61.91;101411.44;5038492;28;20665;-67
2023/05/18 00:21:00;;;;;;;1.77;1.77;;;10.80;99.90;;;10.97;61.54;101409.19;5017239;28;21192;-67
2023/05/18 00:23:29;;;;;;;1.40;1.30;;;10.80;99.90;;;10.94;62.09;101411.03;5028253;28;21239;-68
2023/05/18 00:26:01;;;;;;;1.67;1.57;;;10.70;99.90;;;10.93;61.62;101406.75;5037096;28;20715;-67
2023/05/18 00:28:28;;;;;;;1.20;1.10;;;10.70;99.90;;;10.89;61.88;101410.50;5029611;28;20668;-67
2023/05/18 00:30:56;;;;;;;1.83;1.57;;;10.70;99.90;;;10.87;61.47;101399.31;5035785;28;20666;-67
2023/05/18 00:33:23;;;;;;;2.23;1.73;;;10.60;99.90;;;10.81;61.61;101407.53;5036001;28;20603;-67
2023/05/18 00:35:50;;;;;;;1.70;1.60;;;10.70;99.90;;;10.75;62.01;101399.22;5036607;28;21237;-68
2023/05/18 00:38:17;;;;;;;1.73;1.60;;;10.60;99.90;;;10.72;61.90;101399.38;5023102;28;20660;-67
2023/05/18 00:40:44;;;;;;;4.23;1.93;;;10.50;99.90;;;10.73;62.83;101396.69;5015285;28;20640;-68
2023/05/18 00:43:11;;;;;;;3.23;1.50;;;10.50;99.90;;;10.70;62.08;101399.50;5024858;28;21501;-67
2023/05/18 00:45:38;;;;;;;1.90;1.80;;;10.50;99.90;;;10.70;62.43;101404.72;5047543;28;20639;-69
2023/05/18 00:48:05;;;;;;;1.80;1.70;;;10.50;99.90;;;10.70;62.85;101399.50;5034495;28;20650;-67
2023/05/18 00:50:33;;;;;;;1.90;1.80;;;10.50;99.90;;;10.63;62.96;101395.56;5022382;28;21044;-66
2023/05/18 00:53:00;;;;;;;2.00;1.30;;;10.40;99.90;;;10.63;63.13;101406.00;5036220;28;20650;-68
2023/05/18 00:55:27;;;;;;;1.57;1.37;;;10.40;99.90;;;10.61;63.25;101401.78;5035602;28;20617;-67
2023/05/18 00:57:56;;;;;;;1.43;1.43;;;10.40;99.90;;;10.60;63.45;101400.13;5021095;28;21196;-67
2023/05/18 01:00:23;;;;;;;1.77;1.67;;;10.40;99.90;;;10.60;63.04;101400.97;5043734;28;20698;-67
2023/05/18 01:02:51;;;;;;;1.87;1.63;;;10.40;99.90;;;10.58;62.60;101404.59;5012043;28;20759;-68
2023/05/18 01:05:21;;;;;;;1.40;1.40;;;10.30;99.90;;;10.55;62.88;101404.78;5027039;28;20621;-67
2023/05/18 01:07:49;;;;;;;1.63;1.07;;;10.30;99.90;;;10.52;62.99;101394.53;5014561;28;20596;-67
2023/05/18 01:10:18;;;;;;;2.40;1.67;;;10.30;99.90;;;10.45;63.25;101404.50;5016739;28;20639;-67
2023/05/18 01:13:26;;;;;;;1.80;1.70;;;10.20;99.90;;;10.37;64.47;101395.44;5042344;28;20627;-67
2023/05/18 01:15:56;;;;;;;2.07;1.73;;;10.20;99.90;;;10.32;64.20;101393.09;5038297;28;21062;-67
2023/05/18 01:18:38;;;;;;;2.07;1.87;;;10.10;99.90;;;10.31;64.57;101403.63;5020597;28;21258;-67
2023/05/18 01:21:18;;;;;;;1.37;1.37;;;10.10;99.90;;;10.28;64.33;101396.81;5011602;28;21029;-67
2023/05/18 01:23:53;;;;;;;2.27;1.53;;;10.10;99.90;;;10.33;64.09;101401.78;5019664;28;20635;-67
2023/05/18 01:26:30;;;;;;;9.50;2.23;;;10.10;99.90;;;10.27;64.80;101400.34;5034441;28;20600;-67
2023/05/18 01:29:06;;;;;;;1.70;1.60;;;10.10;99.90;;;10.24;64.57;101400.53;5032032;28;20669;-67
2023/05/18 01:31:33;;;;;;;2.83;1.70;;;10.00;99.90;;;10.22;64.56;101399.78;5036347;28;20719;-67
2023/05/18 01:34:00;;;;;;;2.00;1.80;;;10.00;99.90;;;10.23;65.13;101404.06;5030461;28;20648;-67
2023/05/18 01:36:27;;;;;;;1.70;1.60;;;10.00;99.90;;;10.15;65.30;101401.06;5032825;28;20616;-67
2023/05/18 01:38:56;;;;;;;2.20;1.87;;;10.00;99.90;;;10.11;65.40;101404.78;5031064;28;20641;-67
2023/05/18 01:41:24;;;;;;;1.73;1.60;;;9.90;99.90;;;10.05;65.84;101398.09;5030563;28;20647;-66
2023/05/18 01:44:14;;;;;;;1.60;1.60;;;9.90;99.90;;;10.04;65.77;101398.22;5039729;28;20641;-69
2023/05/18 01:47:03;;;;;;;2.87;1.80;;;9.80;99.90;;;10.01;65.71;101387.94;5022377;28;20616;-68
2023/05/18 01:49:44;;;;;;;2.13;2.00;;;9.80;99.90;;;9.96;65.87;101395.22;5030128;28;20676;-67
2023/05/18 01:52:19;;;;;;;3.50;2.53;;;9.80;99.90;;;9.93;66.39;101387.53;5030651;28;20667;-69
2023/05/18 01:54:53;;;;;;;2.33;1.50;;;9.80;99.90;;;9.88;66.42;101387.81;5031245;28;21238;-67
2023/05/18 01:57:27;;;;;;;6.97;1.93;;;9.70;99.90;;;9.87;66.86;101388.75;5029773;28;20608;-67
2023/05/18 01:59:55;;;;;;;1.60;1.50;;;9.70;99.90;;;9.79;66.97;101383.13;5016333;28;20657;-67
2023/05/18 02:02:22;;;;;;;3.83;1.90;;;9.60;99.90;;;9.82;66.98;101382.09;5012553;28;20602;-67
2023/05/18 02:04:49;;;;;;;2.00;1.87;;;9.60;99.90;;;9.82;66.79;101388.16;5037293;28;21150;-67
2023/05/18 02:07:16;;;;;;;1.30;1.30;;;9.70;99.90;;;9.78;67.11;101386.66;5034715;28;20613;-68
2023/05/18 02:09:44;;;;;;;1.70;1.50;;;9.60;99.90;;;9.76;67.47;101390.28;5027848;28;20695;-66
2023/05/18 02:12:11;;;;;;;2.10;2.00;;;9.60;99.90;;;9.68;67.59;101382.91;5013643;28;20650;-67
2023/05/18 02:14:38;;;;;;;0.90;0.90;;;9.60;99.90;;;9.61;67.76;101389.38;5018747;28;20637;-67
2023/05/18 02:17:06;;;;;;;0.93;0.93;;;9.50;99.90;;;9.60;67.91;101395.53;5007650;28;20737;-67
2023/05/18 02:19:36;;;;;;;4.07;2.30;;;9.50;99.90;;;9.56;67.95;101383.56;5029305;28;20652;-67
2023/05/18 02:22:05;;;;;;;3.00;1.90;;;9.40;99.90;;;9.54;68.12;101389.81;5029306;28;20894;-67
2023/05/18 02:24:33;;;;;;;1.57;1.47;;;9.40;99.90;;;9.53;68.44;101395.94;5035206;28;20648;-67
2023/05/18 02:27:00;;;;;;;1.83;1.73;;;9.40;99.90;;;9.48;68.46;101390.13;5030103;28;20624;-67
2023/05/18 02:29:27;;;;;;;2.20;2.00;;;9.30;99.90;;;9.48;68.56;101388.38;5009259;28;20703;-66
2023/05/18 02:31:54;;;;;;;1.80;1.70;;;9.30;99.90;;;9.46;68.91;101387.63;5021065;28;20664;-67
2023/05/18 02:34:23;;;;;;;1.23;1.23;;;9.30;99.90;;;9.44;69.15;101381.66;5030215;28;20617;-67
2023/05/18 02:36:50;;;;;;;2.40;1.60;;;9.30;99.90;;;9.44;68.76;101386.00;5010760;28;20632;-66
2023/05/18 02:39:17;;;;;;;1.93;1.37;;;9.30;99.90;;;9.38;68.68;101388.06;5010191;28;20728;-67
2023/05/18 02:41:44;;;;;;;1.60;1.50;;;9.20;99.90;;;9.36;69.12;101389.91;5034628;28;20722;-68
2023/05/18 02:44:11;;;;;;;1.20;1.17;;;9.20;99.90;;;9.34;69.19;101383.94;5029176;28;20639;-67
2023/05/18 02:46:38;;;;;;;1.30;1.30;;;9.20;99.90;;;9.34;69.14;101383.94;5031161;28;20679;-69
2023/05/18 02:49:05;;;;;;;1.23;1.00;;;9.10;99.90;;;9.35;69.63;101388.22;5029648;28;20651;-67
2023/05/18 02:51:32;;;;;;;1.73;1.10;;;9.20;99.90;;;9.36;69.16;101386.44;5011917;28;20894;-67
2023/05/18 02:53:59;;;;;;;0.87;0.77;;;9.20;99.90;;;9.38;69.49;101384.59;5011497;28;20589;-67
2023/05/18 02:56:27;;;;;;;1.53;1.20;;;9.20;99.90;;;9.35;69.25;101382.16;5011215;28;20680;-66
2023/05/18 02:58:56;;;;;;;3.30;1.50;;;9.20;99.90;;;9.34;69.50;101386.53;5006164;28;20664;-67
2023/05/18 03:01:25;;;;;;;1.80;1.70;;;9.20;99.90;;;9.30;69.41;101379.81;5029198;28;20664;-67
2023/05/18 03:03:56;;;;;;;2.70;1.70;;;9.20;99.90;;;9.25;69.88;101386.19;5023961;28;20656;-68
2023/05/18 03:06:25;;;;;;;1.67;1.40;;;9.10;99.90;;;9.21;69.74;101380.31;5029419;28;20676;-67
2023/05/18 03:08:55;;;;;;;1.40;1.30;;;9.10;99.90;;;9.20;70.04;101382.97;5029616;28;20759;-67
2023/05/18 03:11:23;;;;;;;1.13;1.13;;;9.00;99.90;;;9.19;70.62;101392.59;5028103;28;20668;-68
2023/05/18 03:13:50;;;;;;;2.37;1.90;;;9.00;99.90;;;9.21;70.08;101382.91;5026600;28;20624;-67
2023/05/18 03:16:17;;;;;;;4.17;1.47;;;9.10;99.90;;;9.17;70.34;101384.00;5026870;28;20967;-68
2023/05/18 03:18:44;;;;;;;1.90;1.67;;;9.10;99.90;;;9.15;70.20;101383.25;5029432;28;20641;-67
2023/05/18 03:21:12;;;;;;;2.93;1.97;;;9.00;99.90;;;9.13;70.42;101385.09;5029810;28;20639;-67
2023/05/18 03:23:39;;;;;;;1.63;1.53;;;9.00;99.90;;;9.14;70.69;101388.53;5020826;28;20663;-69
2023/05/18 03:26:10;;;;;;;1.73;1.50;;;9.00;99.90;;;9.12;70.59;101390.38;5010784;28;20597;-67
2023/05/18 03:28:38;;;;;;;1.47;1.37;;;9.00;99.90;;;9.07;70.79;101395.81;5018555;28;21261;-67
2023/05/18 03:31:05;;;;;;;4.07;1.80;;;8.90;99.90;;;9.10;70.78;101392.22;5024837;28;20708;-67
2023/05/18 03:33:32;;;;;;;1.87;1.77;;;8.90;99.90;;;9.05;70.80;101396.84;5020865;28;20621;-66
2023/05/18 03:36:03;;;;;;;1.60;1.50;;;8.90;99.90;;;9.02;71.22;101397.84;5020924;28;20662;-67
2023/05/18 03:38:31;;;;;;;3.00;2.00;;;8.90;99.90;;;9.00;71.53;101396.25;5029773;28;20652;-67
2023/05/18 03:40:58;;;;;;;1.00;1.00;;;8.90;99.90;;;8.95;71.40;101399.09;5030263;28;20738;-67
2023/05/18 03:43:25;;;;;;;3.60;2.00;;;8.80;99.90;;;8.87;71.87;101397.81;5029471;28;21059;-67
2023/05/18 03:45:52;;;;;;;1.57;1.47;;;8.80;99.90;;;8.83;71.50;101407.56;5017096;28;21081;-67
2023/05/18 03:48:20;;;;;;;3.37;1.90;;;8.70;99.90;;;8.76;72.38;101400.97;5029500;28;20652;-67
2023/05/18 03:50:47;;;;;;;1.30;1.20;;;8.70;99.90;;;8.70;72.04;101403.06;5019718;28;21300;-68
2023/05/18 03:53:17;;;;;;;2.10;1.90;;;8.60;99.90;;;8.70;72.08;101403.91;5041550;28;20755;-67
2023/05/18 03:55:45;;;;;;;2.20;2.00;;;8.60;99.90;;;8.65;72.38;101405.03;5018731;28;20616;-67
2023/05/18 03:58:12;;;;;;;5.73;2.17;;;8.60;99.90;;;8.58;72.42;101409.75;5011026;28;20857;-67
2023/05/18 04:00:39;;;;;;;2.73;2.20;;;8.50;99.90;;;8.57;73.02;101410.66;5010043;28;20622;-67
2023/05/18 04:03:06;;;;;;;2.70;2.10;;;8.50;99.90;;;8.58;72.29;101407.97;5009768;28;21206;-68
2023/05/18 04:05:33;;;;;;;4.30;2.00;;;8.50;99.90;;;8.59;73.03;101414.03;5028226;28;20727;-67
2023/05/18 04:08:00;;;;;;;2.37;2.17;;;8.50;99.90;;;8.54;72.92;101416.00;5029040;28;20592;-66
2023/05/18 04:10:27;;;;;;;1.50;1.40;;;8.40;99.90;;;8.57;73.15;101421.91;5030426;28;20620;-67
2023/05/18 04:12:54;;;;;;;1.63;1.47;;;8.40;99.90;;;8.63;72.97;101418.13;5012459;28;20672;-67
2023/05/18 04:15:21;;;;;;;1.50;1.37;;;8.50;99.90;;;8.70;73.07;101418.66;5008626;28;20732;-67
2023/05/18 04:17:50;;;;;;;4.30;1.70;;;8.50;99.90;;;8.83;73.35;101415.38;5024689;28;20628;-68
2023/05/18 04:20:18;;;;;;;3.10;2.13;;;8.60;99.90;;;8.95;72.58;101419.91;5035098;28;21059;-68
2023/05/18 04:22:46;;;;;;;1.70;1.60;;;8.80;99.90;;;9.14;71.07;101431.03;5049056;28;21163;-68
2023/05/18 04:25:14;;;;;;;2.33;2.10;;;8.90;99.90;;;9.29;70.47;101424.16;5049440;28;20623;-69
2023/05/18 04:27:44;;;;;;;2.90;2.00;;;9.10;99.90;;;9.43;70.54;101432.09;5041822;28;21057;-67
2023/05/18 04:30:12;;;;;;;1.37;0.93;;;9.20;99.90;;;9.58;69.12;101433.00;5029264;28;20629;-67
2023/05/18 04:32:41;;;;;;;2.77;2.00;;;9.40;99.90;;;9.62;69.14;101435.34;5023859;28;20660;-68
2023/05/18 04:35:10;;;;;;;2.03;1.60;;;9.50;99.90;;;9.76;68.43;101431.97;5028856;28;20696;-69
2023/05/18 04:37:41;;;;;;;2.00;1.90;;;9.60;99.90;;;9.85;68.33;101441.88;5024686;28;20608;-67
2023/05/18 04:40:19;;;;;;;1.60;1.50;;;9.70;99.90;;;9.99;68.17;101434.13;5025448;28;20640;-69
2023/05/18 04:42:48;;;;;;;1.93;1.80;;;9.80;99.90;;;9.99;67.49;101436.72;5027949;28;20727;-68
2023/05/18 04:45:18;;;;;;;3.43;2.10;;;9.90;99.90;;;10.02;67.96;101439.16;5019003;28;20644;-69
2023/05/18 04:47:54;;;;;;;3.87;2.20;;;9.90;99.90;;;10.19;67.53;101439.06;5031081;28;21159;-68
2023/05/18 04:50:27;;;;;;;1.77;1.30;;;10.00;99.90;;;10.40;66.88;101440.44;5033657;28;20715;-67
2023/05/18 04:52:56;;;;;;;1.40;1.40;;;10.20;99.90;;;10.56;65.58;101443.81;5015016;28;20672;-68
2023/05/18 04:55:29;;;;;;;3.13;1.37;;;10.40;99.90;;;10.78;65.57;101444.22;5030659;28;20600;-70
2023/05/18 04:58:02;;;;;;;1.47;1.43;;;10.60;99.90;;;10.99;64.44;101443.88;5029635;28;20654;-68
2023/05/18 05:00:42;;;;;;;0.83;0.83;;;10.80;99.90;;;11.21;64.45;101447.69;5021210;28;20619;-67
2023/05/18 05:03:09;;;;;;;1.93;1.83;;;11.00;99.90;;;11.24;62.93;101444.91;5036706;28;20659;-68
2023/05/18 05:05:36;;;;;;;2.33;1.40;;;11.20;99.90;;;11.36;63.63;101453.75;5030738;28;21201;-68
2023/05/18 05:08:04;;;;;;;3.43;2.10;;;11.20;99.90;;;11.42;62.38;101448.97;5031035;28;20635;-68
2023/05/18 05:10:31;;;;;;;2.43;2.20;;;11.30;99.90;;;11.61;62.72;101446.03;5033268;28;20629;-70
2023/05/18 05:12:58;;;;;;;1.70;1.60;;;11.40;99.90;;;11.76;62.62;101452.94;5016129;28;20664;-68
2023/05/18 05:15:26;;;;;;;2.13;1.33;;;11.60;99.90;;;11.93;61.60;101452.69;5011702;28;20614;-71
2023/05/18 05:17:53;;;;;;;1.47;1.20;;;11.80;99.90;;;12.10;61.50;101443.75;5013362;28;21494;-68
2023/05/18 05:20:20;;;;;;;2.00;1.90;;;11.90;99.90;;;12.27;60.94;101446.09;5033560;28;20600;-69
2023/05/18 05:22:47;;;;;;;1.73;1.63;;;12.10;99.90;;;12.43;60.13;101449.38;5032430;28;20682;-68
2023/05/18 05:25:14;;;;;;;1.87;1.77;;;12.20;99.90;;;12.67;59.86;101454.75;5031376;28;20640;-70
2023/05/18 05:27:41;;;;;;;2.10;2.00;;;12.50;99.90;;;12.80;58.72;101443.34;5032215;28;21187;-67
2023/05/18 05:30:09;;;;;;;2.00;1.90;;;12.60;99.90;;;12.92;58.65;101454.75;5013163;28;21248;-68
2023/05/18 05:32:39;;;;;;;0.77;0.60;;;12.70;99.90;;;13.11;57.56;101460.44;5031975;28;20636;-70
2023/05/18 05:35:06;;;;;;;2.40;2.03;;;12.90;99.90;;;13.22;57.36;101452.69;5017980;28;20667;-70
2023/05/18 05:37:34;;;;;;;2.07;1.60;;;13.10;99.90;;;13.42;56.79;101459.13;5031719;28;20593;-68
2023/05/18 05:40:01;;;;;;;2.97;1.80;;;13.20;99.90;;;13.69;55.49;101450.13;5031559;28;20662;-69
2023/05/18 05:42:28;;;;;;;2.27;2.07;;;13.50;99.90;;;13.87;55.97;101456.69;5031419;28;21013;-67
2023/05/18 05:44:55;;;;;;;4.10;1.87;;;13.60;99.90;;;14.08;55.07;101454.25;5030751;28;20639;-68
2023/05/18 05:47:22;;;;;;;1.90;1.80;;;13.80;99.90;;;14.08;54.56;101458.66;5031345;28;21202;-69
2023/05/18 05:49:49;;;;;;;2.00;1.90;;;14.00;99.90;;;14.20;54.81;101465.66;5029945;28;20672;-67
2023/05/18 05:52:16;;;;;;;2.50;1.67;;;14.00;99.90;;;14.46;54.14;101464.59;5029551;28;20747;-67
2023/05/18 05:54:43;;;;;;;3.60;1.87;;;14.20;99.90;;;14.77;52.89;101461.31;5035149;28;21010;-68
2023/05/18 05:57:10;;;;;;;2.77;2.10;;;14.40;99.90;;;15.05;52.45;101473.19;5027511;28;21353;-68
2023/05/18 05:59:37;;;;;;;1.90;1.67;;;14.70;99.90;;;15.35;51.77;101468.16;5029791;28;20712;-67
2023/05/18 06:02:04;;;;;;;1.57;1.47;;;15.00;99.90;;;15.78;50.64;101466.44;5023678;28;20724;-68
2023/05/18 06:04:31;;;;;;;2.80;2.20;;;15.40;99.60;;;16.15;49.87;101461.66;5019533;28;20644;-67
2023/05/18 06:06:58;;;;;;;2.20;2.10;;;15.80;98.60;;;16.47;48.55;101466.91;5024510;28;20615;-67
2023/05/18 06:09:25;;;;;;;3.53;1.73;;;16.10;97.90;;;16.75;48.13;101468.94;5022323;28;20657;-67
2023/05/18 06:11:52;;;;;;;2.30;1.90;;;16.40;97.10;;;17.15;47.10;101469.00;5030023;28;20656;-68
2023/05/18 06:14:20;;;;;;;4.23;1.80;;;16.80;96.40;;;17.58;46.27;101466.97;5021931;28;20657;-68
2023/05/18 06:16:47;;;;;;;4.13;2.07;;;17.20;95.30;;;17.91;45.03;101469.25;5031460;28;20678;-68
2023/05/18 06:19:16;;;;;;;1.90;1.80;;;17.60;94.10;;;18.22;44.03;101465.53;5008437;28;20645;-68
2023/05/18 06:21:44;;;;;;;1.80;1.47;;;17.90;92.70;;;18.57;43.49;101479.00;5010838;28;20633;-68
2023/05/18 06:24:10;;;;;;;1.60;1.50;;;18.20;92.30;;;18.86;42.93;101472.84;5009794;28;20677;-68
2023/05/18 06:26:37;;;;;;;1.93;1.60;;;18.60;91.40;;;19.05;42.62;101467.50;5009804;28;20645;-68
2023/05/18 06:29:09;;;;;;;1.83;1.70;;;18.80;90.30;;;19.35;42.16;101477.84;5009983;28;20653;-68
2023/05/18 06:31:46;;;;;;;3.60;1.90;;;19.10;88.90;;;20.01;40.82;101478.44;5014364;28;20683;-68
2023/05/18 06:34:13;;;;;;;1.73;1.60;;;19.60;87.00;;;20.28;40.48;101475.72;5030073;28;20656;-68
2023/05/18 06:36:40;;;;;;;2.87;1.70;;;20.00;85.10;;;20.73;39.27;101472.94;5031698;28;20617;-68
2023/05/18 06:39:07;;;;;;;1.90;1.80;;;20.40;83.00;;;21.28;38.67;101479.59;5025821;28;20747;-68
2023/05/18 06:41:34;;;;;;;1.50;1.40;;;21.00;80.80;;;21.80;37.47;101482.94;5022762;28;20609;-67
2023/05/18 06:44:02;;;;;;;1.60;1.53;;;21.50;78.60;;;22.31;36.88;101485.38;5018069;28;21125;-68
2023/05/18 06:46:29;;;;;;;1.40;1.30;;;22.00;76.40;;;22.66;36.07;101488.72;5026349;28;20640;-70
2023/05/18 06:48:56;;;;;;;1.50;1.40;;;22.40;74.20;;;23.13;35.47;101501.09;5019075;28;20652;-68
2023/05/18 06:51:23;;;;;;;1.67;1.57;;;22.80;72.10;;;24.01;34.14;101492.91;5027246;28;20646;-66
2023/05/18 06:53:50;;;;;;;1.50;1.50;;;23.60;70.20;;;24.49;33.51;101490.72;5029941;28;20640;-69
2023/05/18 06:56:17;;;;;;;2.30;1.97;;;24.30;67.70;;;24.74;32.31;101490.50;5036399;28;20624;-68
2023/05/18 06:58:44;;;;;;;1.40;1.40;;;24.60;65.60;;;24.89;32.29;101488.72;5009288;28;20676;-67
2023/05/18 07:01:11;;;;;;;2.07;1.90;;;24.80;64.30;;;24.96;32.40;101481.66;5009918;28;20712;-68
2023/05/18 07:03:39;;;;;;;1.77;1.67;;;24.80;63.50;;;25.02;31.84;101475.56;5013094;28;21203;-67
2023/05/18 07:06:06;;;;;;;1.70;1.60;;;24.80;62.90;;;25.67;31.48;101484.47;5014072;28;20704;-68
2023/05/18 07:08:35;;;;;;;2.57;1.63;;;25.30;62.40;;;26.44;30.42;101476.63;5009268;28;20648;-69
2023/05/18 07:11:05;;;;;;;2.27;1.87;;;26.10;60.80;;;27.06;30.10;101482.06;5009542;28;21151;-70
2023/05/18 07:13:35;;;;;;;1.57;1.50;;;26.70;60.10;;;27.61;29.10;101480.09;5008505;28;20673;-70
2023/05/18 07:16:07;;;;;;;2.13;1.60;;;27.40;58.40;;;27.97;28.10;101485.19;5023135;28;20727;-71
2023/05/18 07:18:37;;;;;;;2.00;1.90;;;27.80;56.50;;;27.56;27.46;101468.31;5018261;28;20679;-70
2023/05/18 07:21:08;;;;;;;2.20;2.10;;;27.70;55.30;;;27.37;29.26;101469.06;5027508;28;20712;-69
2023/05/18 07:23:35;;;;;;;1.80;1.47;;;27.30;56.20;;;27.47;29.16;101474.91;5026858;28;20608;-71
2023/05/18 07:26:03;;;;;;;1.57;1.10;;;27.20;56.70;;;27.51;28.64;101474.25;5009543;28;20642;-71
2023/05/18 07:28:30;;;;;;;1.40;1.40;;;27.40;55.20;;;27.79;28.35;101471.47;5009378;28;20649;-69
2023/05/18 07:30:57;;;;;;;1.40;1.30;;;27.80;54.10;;;27.08;28.79;101467.44;5023213;28;20655;-69
2023/05/18 07:33:25;;;;;;;1.70;1.60;;;27.40;54.00;;;27.43;28.49;101476.31;5030028;28;20672;-68
2023/05/18 07:35:52;;;;;;;2.20;1.70;;;27.40;54.50;;;27.61;28.03;101474.75;5038420;28;20632;-68
2023/05/18 07:38:19;;;;;;;2.07;1.90;;;27.60;53.80;;;28.04;28.31;101466.41;5049059;28;20734;-71
2023/05/18 07:40:48;;;;;;;2.07;1.63;;;28.00;54.00;;;28.27;27.87;101469.53;5023403;28;20663;-69
2023/05/18 07:43:14;;;;;;;4.37;2.00;;;28.50;60.90;;;28.53;27.06;101464.16;5021820;28;20606;-70
2023/05/18 07:45:41;;;;;;;1.80;1.67;;;28.60;52.30;;;29.00;26.57;101468.47;5020060;28;20719;-69
2023/05/18 07:48:09;;;;;;;1.80;1.70;;;28.90;52.60;;;29.11;26.65;101460.56;5026013;28;20687;-68
2023/05/18 07:50:36;;;;;;;2.07;1.80;;;29.50;56.30;;;29.99;25.45;101469.72;5029598;28;20695;-68
2023/05/18 07:53:03;;;;;;;1.73;1.63;;;30.10;60.80;;;30.68;24.83;101461.53;5030678;28;20660;-69
2023/05/18 07:55:31;;;;;;;1.60;1.50;;;30.70;49.50;;;30.89;24.66;101474.63;5024476;28;20626;-68
2023/05/18 07:57:59;;;;;;;1.53;1.37;;;31.00;48.90;;;31.59;23.94;101475.88;5027484;28;20672;-69
2023/05/18 08:00:26;;;;;;;4.40;0.80;;;31.60;48.10;;;30.53;23.96;101471.84;5027897;28;21026;-68
2023/05/18 08:02:53;;;;;;;2.73;1.97;;;31.50;46.80;;;30.28;24.81;101470.97;5027941;28;20691;-68
2023/05/18 08:05:22;;;;;;;1.40;1.40;;;30.70;47.90;;;31.12;24.10;101480.16;5020959;28;20621;-69
2023/05/18 08:07:51;;;;;;;1.60;1.50;;;31.20;47.30;;;31.81;23.12;101476.22;5022794;28;21190;-68
2023/05/18 08:10:19;;;;;;;1.47;1.37;;;31.90;46.30;;;32.01;23.09;101469.50;5029605;28;21198;-68
2023/05/18 08:12:46;;;;;;;1.90;1.80;;;32.40;46.00;;;32.43;22.28;101469.47;5012623;28;21045;-67
2023/05/18 08:15:13;;;;;;;1.27;1.27;;;32.60;45.20;;;33.21;22.27;101478.03;5025889;28;21084;-67
2023/05/18 08:17:40;;;;;;;1.50;1.50;;;33.50;45.00;;;33.49;21.40;101472.66;5026561;28;20723;-71
2023/05/18 08:20:09;;;;;;;1.70;1.60;;;33.70;44.20;;;33.76;21.21;101470.22;5032929;28;20609;-68
2023/05/18 08:22:36;;;;;;;1.47;1.37;;;34.00;44.20;;;33.85;21.83;101466.88;5032712;28;20651;-68
2023/05/18 08:25:04;;;;;;;2.07;1.90;;;34.10;43.90;;;33.36;20.82;101452.13;5030486;28;21191;-67
2023/05/18 08:27:30;;;;;;;1.30;1.20;;;33.90;42.70;;;32.60;21.41;101454.22;5022213;28;20631;-68
2023/05/18 08:29:57;;;;;;;1.60;1.50;;;33.50;42.50;;;32.96;21.20;101448.56;5032019;28;20746;-68
2023/05/18 08:32:24;;;;;;;1.70;1.60;;;33.50;42.50;;;32.89;21.44;101450.56;5028360;28;21251;-69
2023/05/18 08:34:52;;;;;;;2.13;1.70;;;33.60;42.60;;;32.53;21.76;101450.81;4992299;28;20633;-68
2023/05/18 08:37:20;;;;;;;1.90;1.80;;;33.20;42.70;;;32.83;21.40;101440.69;5020454;28;20795;-69
2023/05/18 08:39:47;;;;;;;2.00;1.70;;;33.40;42.80;;;32.83;21.99;101441.53;5023438;28;20719;-68
2023/05/18 08:42:49;;;;;;;1.73;1.63;;;33.40;43.20;;;32.91;22.27;101432.22;5020305;28;20618;-66
2023/05/18 08:45:54;;;;;;;2.20;1.75;;;33.50;42.90;;;32.85;22.17;101443.97;5019224;28;20736;-66
2023/05/18 08:48:22;;;;;;;1.90;1.80;;;33.30;43.00;;;33.19;21.05;101439.59;5023076;28;20721;-66
2023/05/18 08:50:57;;;;;;;1.47;1.37;;;33.50;42.20;;;34.46;20.11;101447.06;5020044;28;20680;-68
2023/05/18 08:53:24;;;;;;;1.33;1.33;;;34.40;42.10;;;35.10;19.78;101438.28;5023879;28;20663;-66
2023/05/18 08:55:56;;;;;;;1.53;1.43;;;35.20;41.20;;;35.69;19.47;101444.66;5020596;28;20639;-67
2023/05/18 08:58:43;;;;;;;1.50;1.50;;;35.80;41.20;;;35.99;18.80;101436.03;5026643;28;20639;-67
2023/05/18 09:01:11;;;;;;;2.00;1.70;;;36.30;40.20;;;36.51;18.64;101428.00;5016120;28;20700;-67
2023/05/18 09:03:39;;;;;;;1.70;1.60;;;36.70;39.90;;;36.74;17.95;101432.22;5026733;28;20640;-67
2023/05/18 09:06:06;;;;;;;1.90;1.60;;;37.10;39.40;;;34.46;18.62;101422.69;5033210;28;20652;-67
2023/05/18 09:08:34;;;;;;;1.80;1.70;;;35.70;38.30;;;32.69;20.42;101426.59;5030560;28;20648;-65
2023/05/18 09:11:02;;;;;;;1.77;1.67;;;33.60;39.90;;;33.42;20.78;101418.69;5022105;28;21014;-67
2023/05/18 09:13:32;;;;;;;2.50;1.60;;;33.80;40.40;;;34.55;19.36;101423.09;5024819;28;20740;-65
2023/05/18 09:15:59;;;;;;;2.10;1.90;;;34.70;40.10;;;35.62;19.18;101425.06;5020276;28;20656;-69
2023/05/18 09:18:26;;;;;;;2.10;2.00;;;35.70;40.10;;;35.70;18.89;101421.03;5019571;28;20664;-68
2023/05/18 09:20:54;;;;;;;2.77;1.60;;;36.00;39.20;;;35.27;18.66;101423.84;5014097;28;20621;-65
2023/05/18 09:23:22;;;;;;;4.03;1.57;;;35.70;38.90;;;36.00;18.07;101420.53;5044869;28;20642;-65
2023/05/18 09:25:54;;;;;;;2.33;2.00;;;36.20;38.70;;;35.12;19.00;101410.09;5021318;28;20639;-68
2023/05/18 09:28:29;;;;;;;1.77;1.67;;;35.80;39.00;;;34.20;19.75;101409.84;5033957;28;20641;-67
2023/05/18 09:30:56;;;;;;;1.93;1.77;;;34.90;39.30;;;31.95;21.41;101402.13;5023570;28;20993;-67
2023/05/18 09:33:34;;;;;;;1.73;1.60;;;33.20;39.80;;;30.54;22.53;101409.66;5027124;28;21418;-67
2023/05/18 09:36:06;;;;;;;4.20;1.70;;;31.40;41.30;;;30.14;23.18;101411.03;5021470;28;20734;-67
2023/05/18 09:38:39;;;;;;;4.53;1.87;;;30.50;41.80;;;30.52;22.83;101405.53;5018585;28;21301;-67
2023/05/18 09:41:16;;;;;;;1.13;0.90;;;30.70;41.90;;;30.03;22.49;101411.72;5033190;28;21187;-67
2023/05/18 09:43:45;;;;;;;1.60;1.50;;;30.60;41.50;;;30.86;22.52;101398.81;5049910;28;20616;-65
2023/05/18 09:46:13;;;;;;;5.13;1.83;;;31.10;41.30;;;31.79;21.77;101398.19;5025844;28;20633;-68
2023/05/18 09:48:46;;;;;;;2.40;1.33;;;32.00;41.10;;;31.41;21.91;101397.72;5027862;28;20709;-68
2023/05/18 09:51:17;;;;;;;2.10;1.40;;;31.90;41.10;;;29.24;23.49;101386.34;5008721;28;20633;-68
2023/05/18 09:53:57;;;;;;;0.97;0.97;;;30.20;41.20;;;28.13;24.49;101382.03;5015916;28;20671;-68
2023/05/18 09:56:28;;;;;;;2.77;1.20;;;28.60;42.80;;;28.05;25.34;101396.44;5019554;28;20744;-69
2023/05/18 09:58:55;;;;;;;2.97;1.70;;;28.40;43.70;;;27.20;25.64;101387.31;5019238;28;21294;-67
2023/05/18 10:01:22;;;;;;;1.47;1.37;;;27.60;43.90;;;26.29;26.50;101385.75;5025775;28;20691;-71
2023/05/18 10:03:50;;;;;;;1.50;1.40;;;26.70;44.60;;;26.10;27.32;101376.56;5014362;28;20636;-71
2023/05/18 10:06:26;;;;;;;3.00;1.50;;;26.10;45.40;;;25.73;28.21;101379.47;5014811;28;20690;-69
2023/05/18 10:08:57;;;;;;;2.57;1.70;;;25.70;46.60;;;25.36;28.78;101375.13;5024653;28;21224;-68
2023/05/18 10:11:26;;;;;;;1.40;1.30;;;25.30;47.20;;;24.81;29.95;101371.38;5012889;28;20616;-68
2023/05/18 10:14:15;;;;;;;2.30;2.10;;;24.70;48.30;;;24.01;30.44;101376.44;5019494;28;20759;-69
2023/05/18 10:16:41;;;;;;;1.60;1.50;;;24.00;48.40;;;23.50;31.38;101363.81;5009409;28;20625;-68
2023/05/18 10:19:11;;;;;;;2.60;1.73;;;23.40;49.50;;;23.02;31.79;101365.69;5009146;28;20665;-67
2023/05/18 10:21:40;;;;;;;2.10;1.27;;;22.90;49.90;;;22.58;32.27;101356.53;5029762;28;20635;-67
2023/05/18 10:24:10;;;;;;;1.90;1.67;;;22.50;50.40;;;22.14;32.59;101368.56;5028390;28;20656;-67